PIK weather

Glasgow Prestwick Airport
Glasgow, Scotland, United Kingdom

Public forecast

Using degrees Celsius for public forecast. Weather courtesy of forecast.io.

METAR (pilot weather report)

Retrieved 2018/12/15 04:50 UTC (11 minutes ago):

EGPK 150450Z 15020G30KT 9999 SCT026 04/M02 Q1010

TAF (pilot weather forecast)

Forecast is more than 12 hours old.

Retrieved 2018/12/14 00:00 UTC (1 day ago):

TAF EGPK 142257Z 1500/1524 14015KT 9999 SCT025 TEMPO 1500/1524 15018G30KT 8000 -RA PROB40 TEMPO 1506/1518 4500 RA BKN012 PROB30 TEMPO 1513/1521 15025G40KT